Impacts TAF Board INFO
FOR SITUATIONAL AWARENESS. NOT TO BE USED FOR FLIGHT PLANNING PURPOSES.
IDs:

KTPA - Tampa Intl Arpt, FL, US

Issued at 2031 UTC 25 May 2018
Updated at 2215 UTC 25 May 2018
Potential Impact None Slight Moderate High
Time2153Z 25/23Z 26/00Z 26/01Z 26/02Z 26/03Z 26/04Z 26/05Z 26/06Z 26/07Z 26/08Z 26/09Z 26/10Z 26/11Z>>
Type OBS PRVL PRVL PRVL PRVL PRVL PRVL PRVL PRVL PRVL PRVL PRVL PRVL PRVL
VIS 10 6 6 6 >6 >6 >6 >6 >6 >6 >6 >6 >6 >6
CIG 130 50 50 50 50 50 50 50 50 50 50 50 50 50
Cover OVC OVC OVC OVC OVC OVC OVC OVC OVC OVC OVC OVC OVC OVC
FltCat VFR VFR VFR VFR VFR VFR VFR VFR VFR VFR VFR VFR VFR VFR
WX -- -RA -RA -RA -- -- -- -- -- -- -- -- -- --
WDir 150 120 120 120 140 140 140 140 140 140 140 140 140 140
WSpd 5 9 9 9 6 6 6 6 6 6 6 6 6 6
WGst -- -- -- -- -- -- -- -- -- -- -- -- -- --

Raw TAF
KTPA 252031Z 2521/2624 12009KT 6SM -RA SCT025 BKN050 OVC100
  FM260200 14006KT P6SM SCT025 BKN050 OVC080
  FM261400 12010G18KT 6SM -RA VCTS SCT015CB OVC025
  FM261800 15010KT 5SM -RA VCTS FEW006 SCT015CB OVC025


Raw METAR
KTPA 252153Z 15005KT 10SM FEW011 SCT040 SCT090 OVC130 24/22 A2998 RMK AO2 SLP150 T02440217
KTPA 252053Z 15008KT 10SM SCT011 BKN045 OVC090 24/22 A2997 RMK AO2 LTG DSNT W AND NW RAE03 SLP148 CB DSNT S-NW SHRA DSNT S-NW P0000 60008 T02440217 56002
KTPA 251959Z 11011G24KT 10SM -RA SCT020 BKN045 OVC080 25/21 A2997 RMK AO2 LTG DSNT ALQDS CB DSNT ALQDS P0000 T02500211

METAR Board
Radar Display
Forecast Discussion

FOR SITUATIONAL AWARENESS. NOT TO BE USED FOR FLIGHT PLANNING PURPOSES.